createdAt,value
2023-05-05T00:01:11.023Z,6.97
2023-05-05T00:03:47.396Z,6.85
2023-05-05T00:06:20.360Z,8.13
2023-05-05T00:08:53.134Z,9.48
2023-05-05T00:11:26.338Z,9.38
2023-05-05T00:14:00.573Z,8.98
2023-05-05T00:16:33.865Z,7.13
2023-05-05T00:19:07.242Z,6.97
2023-05-05T00:21:40.060Z,10.95
2023-05-05T00:24:12.909Z,7.70
2023-05-05T00:26:45.805Z,9.98
2023-05-05T00:29:19.943Z,7.05
2023-05-05T00:31:53.155Z,7.63
2023-05-05T00:34:26.344Z,10.40
2023-05-05T00:36:59.193Z,10.00
2023-05-05T00:39:32.033Z,7.32
2023-05-05T00:42:04.809Z,8.25
2023-05-05T00:44:42.202Z,8.02
2023-05-05T00:47:16.761Z,9.23
2023-05-05T00:49:49.602Z,8.32
2023-05-05T00:52:22.562Z,5.80
2023-05-05T00:54:55.604Z,8.13
2023-05-05T00:57:28.713Z,10.20
2023-05-05T01:00:04.799Z,7.85
2023-05-05T01:02:40.364Z,8.20
2023-05-05T01:05:15.449Z,8.35
2023-05-05T01:08:09.238Z,9.50
2023-05-05T01:10:46.982Z,7.85
2023-05-05T01:13:31.728Z,6.60
2023-05-05T01:16:13.944Z,7.75
2023-05-05T01:18:51.092Z,9.68
2023-05-05T01:21:28.079Z,7.63
2023-05-05T01:24:23.546Z,7.30
2023-05-05T01:29:57.362Z,6.85
2023-05-05T01:32:35.144Z,10.98
2023-05-05T01:35:15.066Z,9.40
2023-05-05T01:37:52.694Z,7.93
2023-05-05T01:40:31.483Z,9.40
2023-05-05T01:43:05.129Z,9.43
2023-05-05T01:45:43.350Z,9.35
2023-05-05T01:48:20.451Z,8.88
2023-05-05T01:50:54.978Z,9.77
2023-05-05T01:53:30.254Z,10.43
2023-05-05T01:56:03.996Z,8.40
2023-05-05T01:58:38.417Z,9.15
2023-05-05T02:01:13.577Z,7.60
2023-05-05T02:03:48.876Z,8.40
2023-05-05T02:06:23.864Z,8.60
2023-05-05T02:08:58.890Z,8.70
2023-05-05T02:11:32.155Z,7.90
2023-05-05T02:14:06.747Z,8.93
2023-05-05T02:16:41.415Z,9.57
2023-05-05T02:21:49.187Z,7.75
2023-05-05T02:24:22.054Z,8.52
2023-05-05T02:26:58.772Z,8.63
2023-05-05T02:29:35.764Z,7.13
2023-05-05T02:32:15.502Z,8.13
2023-05-05T02:34:51.103Z,8.70
2023-05-05T02:37:28.365Z,8.40
2023-05-05T02:40:05.625Z,8.75
2023-05-05T02:42:42.534Z,8.07
2023-05-05T02:45:21.089Z,8.75
2023-05-05T02:47:55.854Z,7.28
2023-05-05T02:50:31.126Z,10.10
2023-05-05T02:53:15.156Z,7.30
2023-05-05T02:55:53.987Z,8.80
2023-05-05T02:58:37.743Z,7.88
2023-05-05T03:01:22.612Z,7.80
2023-05-05T03:04:03.966Z,7.38
2023-05-05T03:06:44.252Z,11.50
2023-05-05T03:09:27.162Z,7.53
2023-05-05T03:12:06.390Z,8.38
2023-05-05T03:14:52.730Z,9.00
2023-05-05T03:17:28.843Z,7.18
2023-05-05T03:20:03.481Z,8.13
2023-05-05T03:22:39.757Z,7.22
2023-05-05T03:25:17.234Z,7.43
2023-05-05T03:27:50.917Z,9.07
2023-05-05T03:30:26.578Z,8.65
2023-05-05T03:32:59.473Z,8.45
2023-05-05T03:35:33.666Z,9.23
2023-05-05T03:38:07.878Z,10.10
2023-05-05T03:40:44.474Z,7.90
2023-05-05T03:43:20.219Z,8.77
2023-05-05T03:45:53.372Z,9.32
2023-05-05T03:48:26.601Z,9.27
2023-05-05T03:51:00.076Z,8.87
2023-05-05T03:53:36.433Z,10.68
2023-05-05T03:56:12.088Z,8.93
2023-05-05T03:58:44.828Z,11.80
2023-05-05T04:01:18.776Z,10.13
2023-05-05T04:03:52.056Z,11.57
2023-05-05T04:06:26.236Z,9.85
2023-05-05T04:09:00.766Z,10.75
2023-05-05T04:11:33.576Z,11.90
2023-05-05T04:14:06.895Z,10.15
2023-05-05T04:16:40.141Z,11.25
2023-05-05T04:19:13.969Z,10.25
2023-05-05T04:21:47.217Z,12.30
2023-05-05T04:24:24.601Z,16.27
2023-05-05T04:26:58.489Z,13.38
2023-05-05T04:29:31.700Z,9.07
2023-05-05T04:32:04.879Z,10.77
2023-05-05T04:34:37.846Z,14.23
2023-05-05T04:37:11.325Z,14.00
2023-05-05T04:39:46.416Z,11.63
2023-05-05T04:42:20.080Z,13.07
2023-05-05T04:44:52.894Z,17.50
2023-05-05T04:47:25.733Z,14.38
2023-05-05T04:49:58.806Z,16.38
2023-05-05T04:52:31.616Z,15.52
2023-05-05T04:55:07.212Z,14.93
2023-05-05T04:57:40.056Z,17.77
2023-05-05T05:00:13.789Z,14.40
2023-05-05T05:02:46.731Z,16.58
2023-05-05T05:05:19.810Z,15.20
2023-05-05T05:07:52.834Z,18.75
2023-05-05T05:10:27.192Z,17.20
2023-05-05T05:13:00.129Z,16.77
2023-05-05T05:15:33.073Z,16.90
2023-05-05T05:18:06.069Z,18.92
2023-05-05T05:20:39.313Z,15.60
2023-05-05T05:23:14.796Z,17.35
2023-05-05T05:25:51.581Z,17.73
2023-05-05T05:28:26.640Z,21.73
2023-05-05T05:31:04.675Z,18.67
2023-05-05T05:33:37.957Z,17.00
2023-05-05T05:36:10.894Z,20.02
2023-05-05T05:38:44.211Z,21.80
2023-05-05T05:41:18.845Z,18.40
2023-05-05T05:43:51.650Z,22.08
2023-05-05T05:46:24.806Z,19.67
2023-05-05T05:48:58.421Z,19.77
2023-05-05T05:51:31.568Z,19.83
2023-05-05T05:54:04.810Z,16.75
2023-05-05T05:56:38.962Z,17.02
2023-05-05T05:59:12.400Z,21.10
2023-05-05T06:01:47.135Z,18.02
2023-05-05T06:04:20.502Z,14.15
2023-05-05T06:06:53.354Z,18.25
2023-05-05T06:09:26.338Z,19.40
2023-05-05T06:12:03.727Z,18.73
2023-05-05T06:14:37.557Z,20.83
2023-05-05T06:17:10.826Z,19.38
2023-05-05T06:19:43.765Z,15.90
2023-05-05T06:22:17.281Z,17.52
2023-05-05T06:24:50.700Z,19.30
2023-05-05T06:27:25.782Z,15.98
2023-05-05T06:29:58.620Z,19.33
2023-05-05T06:32:31.470Z,13.52
2023-05-05T06:35:04.648Z,13.68
2023-05-05T06:37:37.511Z,11.98
2023-05-05T06:40:11.440Z,15.82
2023-05-05T06:42:45.866Z,11.20
2023-05-05T06:45:23.400Z,11.30
2023-05-05T06:47:56.265Z,13.95
2023-05-05T06:50:29.104Z,10.30
2023-05-05T06:53:02.126Z,21.33
2023-05-05T06:55:35.084Z,9.98
2023-05-05T06:58:09.374Z,9.23
2023-05-05T07:00:42.718Z,8.88
2023-05-05T07:03:15.721Z,10.40
2023-05-05T07:05:48.591Z,8.85
2023-05-05T07:08:21.569Z,9.93
2023-05-05T07:10:54.422Z,9.98
2023-05-05T07:13:28.713Z,10.18
2023-05-05T07:16:01.561Z,10.80
2023-05-05T07:18:34.892Z,10.32
2023-05-05T07:21:07.785Z,8.60
2023-05-05T07:23:40.701Z,10.13
2023-05-05T07:26:13.774Z,9.77
2023-05-05T07:28:47.996Z,7.78
2023-05-05T07:31:22.152Z,8.90
2023-05-05T07:33:54.990Z,11.55
2023-05-05T07:36:28.870Z,8.23
2023-05-05T07:39:01.760Z,10.03
2023-05-05T07:41:34.629Z,9.05
2023-05-05T07:44:08.813Z,10.95
2023-05-05T07:46:41.850Z,9.05
2023-05-05T07:49:14.690Z,11.25
2023-05-05T07:51:50.012Z,9.63
2023-05-05T07:54:22.817Z,9.82
2023-05-05T07:56:57.184Z,11.10
2023-05-05T07:59:31.680Z,9.85
2023-05-05T08:02:04.741Z,9.75
2023-05-05T08:04:37.826Z,11.32
2023-05-05T08:07:11.472Z,10.70
2023-05-05T08:09:44.337Z,7.82
2023-05-05T08:12:19.043Z,9.70
2023-05-05T08:17:27.020Z,10.77
2023-05-05T08:19:59.904Z,9.88
2023-05-05T08:22:32.713Z,9.07
2023-05-05T08:25:08.749Z,9.00
2023-05-05T08:27:43.110Z,8.45
2023-05-05T08:30:20.730Z,9.60
2023-05-05T08:32:53.535Z,8.55
2023-05-05T08:35:26.429Z,10.18
2023-05-05T08:37:59.449Z,8.80
2023-05-05T08:40:34.712Z,9.95
2023-05-05T08:43:07.794Z,8.65
2023-05-05T08:45:42.755Z,8.85
2023-05-05T08:48:19.499Z,8.23
2023-05-05T08:50:59.499Z,8.68
2023-05-05T08:53:47.616Z,8.98
2023-05-05T08:56:21.808Z,9.70
2023-05-05T08:58:56.234Z,9.98
2023-05-05T09:04:05.404Z,7.97
2023-05-05T09:06:38.575Z,7.85
2023-05-05T09:09:11.872Z,6.90
2023-05-05T09:11:46.891Z,7.40
2023-05-05T09:14:19.758Z,7.18
2023-05-05T09:16:53.940Z,8.05
2023-05-05T09:19:26.955Z,7.18
2023-05-05T09:21:59.900Z,6.22
2023-05-05T09:24:32.672Z,6.25
2023-05-05T09:27:22.605Z,8.30
2023-05-05T09:29:56.167Z,5.78
2023-05-05T09:32:30.648Z,7.37
2023-05-05T09:35:03.493Z,6.03
2023-05-05T09:37:37.745Z,5.55
2023-05-05T09:42:44.923Z,3.85
2023-05-05T09:45:28.182Z,4.90
2023-05-05T09:48:02.457Z,4.75
2023-05-05T09:50:44.539Z,5.22
2023-05-05T09:53:17.376Z,6.03
2023-05-05T09:55:54.868Z,4.60
2023-05-05T09:58:30.154Z,3.60
2023-05-05T10:01:03.051Z,4.35
2023-05-05T10:03:50.882Z,4.57
2023-05-05T10:06:41.047Z,3.25
2023-05-05T10:09:14.595Z,3.80
2023-05-05T10:11:48.433Z,3.10
2023-05-05T10:14:21.426Z,5.63
2023-05-05T10:16:55.594Z,3.30
2023-05-05T10:22:10.267Z,3.03
2023-05-05T10:24:50.216Z,3.58
2023-05-05T10:27:25.240Z,3.58
2023-05-05T10:30:04.461Z,8.15
2023-05-05T10:35:22.729Z,2.90
2023-05-05T10:37:56.150Z,4.60
2023-05-05T10:40:29.469Z,4.13
2023-05-05T10:43:02.468Z,6.03
2023-05-05T10:45:35.688Z,2.47
2023-05-05T10:48:22.329Z,2.67
2023-05-05T10:51:02.929Z,3.88
2023-05-05T10:53:45.432Z,3.53
2023-05-05T10:56:25.269Z,3.03
2023-05-05T10:59:00.254Z,2.55
2023-05-05T11:01:34.836Z,4.38
2023-05-05T11:04:25.982Z,2.45
2023-05-05T11:07:26.001Z,3.72
2023-05-05T11:10:01.618Z,2.42
2023-05-05T11:13:13.352Z,3.67
2023-05-05T11:15:46.243Z,2.08
2023-05-05T11:18:43.093Z,3.85
2023-05-05T11:21:17.200Z,2.28
2023-05-05T11:23:52.953Z,3.78
2023-05-05T11:26:51.555Z,3.70
2023-05-05T11:29:24.532Z,5.15
2023-05-05T11:32:13.381Z,4.82
2023-05-05T11:34:49.670Z,3.67
2023-05-05T11:37:24.174Z,4.00
2023-05-05T11:40:08.870Z,2.50
2023-05-05T11:42:41.897Z,4.03
2023-05-05T11:45:25.429Z,5.45
2023-05-05T11:48:25.486Z,2.57
2023-05-05T11:50:58.677Z,3.20
2023-05-05T11:53:31.630Z,4.00
2023-05-05T11:56:10.040Z,2.60
2023-05-05T11:58:42.892Z,2.65
2023-05-05T12:01:16.626Z,3.85
2023-05-05T12:03:49.893Z,3.20
2023-05-05T12:06:23.196Z,2.38
2023-05-05T12:08:56.202Z,2.10
2023-05-05T12:11:30.490Z,2.05
2023-05-05T12:14:10.754Z,1.35
2023-05-05T12:16:55.134Z,4.57
2023-05-05T12:19:32.747Z,2.72
2023-05-05T12:22:05.976Z,2.50
2023-05-05T12:24:38.894Z,4.00
2023-05-05T12:27:13.263Z,1.50
2023-05-05T12:29:46.081Z,2.15
2023-05-05T12:32:20.017Z,2.65
2023-05-05T12:34:56.091Z,2.22
2023-05-05T12:37:29.079Z,4.22
2023-05-05T12:40:01.930Z,6.43
2023-05-05T12:42:40.515Z,6.90
2023-05-05T12:45:17.996Z,5.70
2023-05-05T12:47:50.816Z,2.95
2023-05-05T12:50:31.923Z,2.20
2023-05-05T12:53:04.700Z,2.55
2023-05-05T12:55:39.725Z,2.05
2023-05-05T12:58:14.046Z,5.05
2023-05-05T13:00:46.903Z,5.15
2023-05-05T13:03:20.408Z,4.05
2023-05-05T13:05:53.502Z,3.67
2023-05-05T13:08:44.161Z,4.53
2023-05-05T13:11:16.917Z,4.43
2023-05-05T13:13:51.110Z,5.10
2023-05-05T13:16:24.160Z,4.93
2023-05-05T13:18:57.687Z,4.93
2023-05-05T13:21:30.601Z,4.95
2023-05-05T13:24:16.226Z,6.75
2023-05-05T13:26:55.716Z,5.63
2023-05-05T13:29:31.607Z,5.03
2023-05-05T13:32:04.743Z,5.05
2023-05-05T13:34:38.917Z,7.38
2023-05-05T13:39:44.464Z,6.00
2023-05-05T13:42:17.242Z,4.57
2023-05-05T13:44:51.554Z,5.53
2023-05-05T13:49:57.164Z,7.72
2023-05-05T13:52:31.738Z,7.65
2023-05-05T13:55:07.216Z,4.53
2023-05-05T13:57:40.326Z,5.32
2023-05-05T14:00:16.180Z,4.63
2023-05-05T14:02:49.290Z,9.95
2023-05-05T14:05:22.331Z,7.47
2023-05-05T14:07:55.871Z,5.22
2023-05-05T14:10:30.884Z,6.15
2023-05-05T14:13:04.153Z,4.88
2023-05-05T14:15:38.382Z,6.68
2023-05-05T14:18:11.208Z,4.78
2023-05-05T14:20:43.969Z,5.53
2023-05-05T14:23:16.798Z,7.40
2023-05-05T14:25:49.605Z,5.00
2023-05-05T14:28:22.475Z,5.38
2023-05-05T14:30:57.097Z,5.78
2023-05-05T14:33:30.055Z,5.30
2023-05-05T14:36:02.923Z,3.72
2023-05-05T14:38:35.785Z,6.18
2023-05-05T14:41:08.683Z,5.40
2023-05-05T14:43:41.496Z,4.68
2023-05-05T14:46:15.759Z,3.47
2023-05-05T14:48:48.636Z,4.13
2023-05-05T14:51:21.563Z,2.45
2023-05-05T14:53:54.661Z,2.03
2023-05-05T14:56:28.367Z,6.70
2023-05-05T14:59:01.174Z,4.60
2023-05-05T15:01:36.324Z,1.45
2023-05-05T15:04:09.721Z,1.92
2023-05-05T15:06:42.667Z,2.80
2023-05-05T15:09:17.975Z,2.38
2023-05-05T15:11:50.799Z,6.25
2023-05-05T15:14:23.711Z,3.17
2023-05-05T15:16:58.050Z,2.00
2023-05-05T15:19:30.968Z,1.58
2023-05-05T15:22:03.772Z,2.63
2023-05-05T15:24:37.285Z,1.98
2023-05-05T15:27:10.433Z,3.25
2023-05-05T15:29:43.216Z,1.98
2023-05-05T15:32:17.768Z,2.63
2023-05-05T15:37:24.070Z,1.15
2023-05-05T15:39:57.173Z,1.52
2023-05-05T15:42:33.393Z,1.63
2023-05-05T15:45:08.012Z,0.73
2023-05-05T15:47:42.419Z,1.65
2023-05-05T15:50:16.095Z,1.38
2023-05-05T15:52:50.032Z,1.95
2023-05-05T15:55:23.715Z,3.25
2023-05-05T15:57:56.972Z,0.95
2023-05-05T16:00:31.300Z,1.35
2023-05-05T16:03:05.689Z,3.47
2023-05-05T16:05:38.554Z,2.13
2023-05-05T16:08:11.428Z,1.15
2023-05-05T16:10:44.249Z,1.30
2023-05-05T16:13:17.305Z,1.13
2023-05-05T16:15:50.260Z,1.20
2023-05-05T16:18:24.426Z,1.20
2023-05-05T16:20:57.902Z,0.68
2023-05-05T16:23:30.833Z,0.60
2023-05-05T16:26:04.526Z,0.95
2023-05-05T16:28:37.581Z,1.73
2023-05-05T16:31:10.679Z,1.60
2023-05-05T16:33:45.774Z,1.83
2023-05-05T16:36:18.612Z,2.80
2023-05-05T16:38:52.261Z,1.35
2023-05-05T16:41:25.916Z,2.07
2023-05-05T16:43:59.450Z,1.27
2023-05-05T16:46:32.460Z,1.23
2023-05-05T16:49:06.757Z,0.68
2023-05-05T16:51:39.647Z,1.73
2023-05-05T16:54:12.517Z,1.67
2023-05-05T16:56:45.602Z,1.60
2023-05-05T16:59:19.150Z,0.90
2023-05-05T17:01:52.254Z,1.15
2023-05-05T17:04:26.510Z,1.65
2023-05-05T17:06:59.385Z,2.17
2023-05-05T17:09:32.217Z,1.20
2023-05-05T17:12:06.087Z,0.85
2023-05-05T17:14:39.538Z,2.15
2023-05-05T17:17:12.887Z,0.80
2023-05-05T17:19:47.130Z,1.23
2023-05-05T17:22:19.962Z,1.05
2023-05-05T17:24:52.894Z,0.82
2023-05-05T17:27:26.080Z,1.23
2023-05-05T17:29:59.577Z,2.38
2023-05-05T17:32:32.510Z,4.05
2023-05-05T17:35:07.992Z,2.95
2023-05-05T17:37:41.117Z,1.48
2023-05-05T17:40:14.139Z,1.90
2023-05-05T17:42:47.237Z,0.93
2023-05-05T17:45:20.034Z,1.13
2023-05-05T17:47:53.304Z,0.65
2023-05-05T17:50:27.549Z,2.65
2023-05-05T17:53:00.776Z,0.73
2023-05-05T17:55:33.607Z,0.95
2023-05-05T17:58:06.451Z,1.48
2023-05-05T18:00:39.827Z,1.23
2023-05-05T18:03:12.912Z,0.68
2023-05-05T18:05:47.488Z,2.30
2023-05-05T18:08:20.527Z,1.08
2023-05-05T18:10:54.510Z,0.63
2023-05-05T18:13:27.351Z,0.70
2023-05-05T18:16:00.439Z,1.13
2023-05-05T18:18:33.423Z,0.57
2023-05-05T18:21:11.764Z,1.20
2023-05-05T18:23:44.688Z,1.33
2023-05-05T18:26:17.886Z,1.05
2023-05-05T18:28:50.947Z,1.42
2023-05-05T18:31:24.713Z,1.23
2023-05-05T18:33:57.582Z,2.05
2023-05-05T18:36:32.075Z,2.35
2023-05-05T18:39:05.336Z,3.38
2023-05-05T18:41:38.292Z,4.70
2023-05-05T18:44:11.323Z,3.72
2023-05-05T18:46:44.304Z,6.95
2023-05-05T18:49:17.217Z,6.43
2023-05-05T18:51:52.063Z,7.15
2023-05-05T18:54:24.877Z,9.35
2023-05-05T18:56:59.165Z,6.18
2023-05-05T18:59:32.661Z,5.40
2023-05-05T19:02:07.853Z,5.80
2023-05-05T19:04:41.249Z,6.07
2023-05-05T19:07:27.621Z,7.20
2023-05-05T19:10:08.281Z,4.65
2023-05-05T19:12:41.394Z,7.32
2023-05-05T19:15:14.346Z,6.18
2023-05-05T19:17:47.537Z,4.85
2023-05-05T19:20:20.743Z,4.28
2023-05-05T19:22:55.624Z,4.10
2023-05-05T19:25:28.593Z,4.22
2023-05-05T19:28:01.975Z,7.68
2023-05-05T19:30:34.847Z,8.88
2023-05-05T19:33:08.713Z,6.90
2023-05-05T19:35:41.713Z,2.97
2023-05-05T19:38:16.209Z,5.25
2023-05-05T19:40:49.213Z,4.72
2023-05-05T19:43:22.252Z,4.05
2023-05-05T19:45:55.163Z,3.85
2023-05-05T19:48:28.516Z,4.45
2023-05-05T19:51:01.768Z,4.85
2023-05-05T19:53:36.353Z,4.15
2023-05-05T19:56:09.310Z,4.15
2023-05-05T19:58:56.509Z,10.52
2023-05-05T20:01:30.138Z,2.78
2023-05-05T20:04:04.183Z,6.55
2023-05-05T20:06:39.269Z,4.95
2023-05-05T20:09:13.534Z,4.03
2023-05-05T20:11:46.573Z,7.80
2023-05-05T20:14:19.457Z,3.83
2023-05-05T20:16:52.530Z,2.72
2023-05-05T20:19:25.490Z,5.60
2023-05-05T20:21:58.769Z,3.20
2023-05-05T20:24:33.797Z,4.13
2023-05-05T20:27:07.983Z,3.30
2023-05-05T20:29:40.981Z,3.50
2023-05-05T20:32:13.975Z,4.68
2023-05-05T20:34:47.244Z,3.58
2023-05-05T20:37:21.762Z,4.43
2023-05-05T20:39:57.262Z,3.55
2023-05-05T20:42:30.549Z,2.90
2023-05-05T20:45:03.814Z,5.30
2023-05-05T20:47:37.850Z,3.20
2023-05-05T20:50:11.307Z,2.88
2023-05-05T20:52:44.435Z,2.72
2023-05-05T20:55:18.643Z,2.55
2023-05-05T20:57:51.387Z,2.78
2023-05-05T21:00:24.647Z,3.80
2023-05-05T21:02:57.870Z,3.08
2023-05-05T21:05:30.961Z,2.90
2023-05-05T21:08:03.859Z,4.53
2023-05-05T21:10:38.391Z,3.58
2023-05-05T21:13:11.205Z,4.40
2023-05-05T21:15:44.001Z,5.13
2023-05-05T21:18:16.974Z,3.72
2023-05-05T21:20:51.480Z,6.35
2023-05-05T21:23:24.362Z,6.13
2023-05-05T21:25:58.678Z,6.45
2023-05-05T21:28:31.466Z,5.22
2023-05-05T21:31:21.066Z,7.15
2023-05-05T21:33:55.181Z,4.43
2023-05-05T21:36:28.054Z,4.32
2023-05-05T21:39:01.240Z,4.55
2023-05-05T21:41:35.550Z,4.25
2023-05-05T21:44:08.347Z,5.68
2023-05-05T21:46:41.314Z,4.97
2023-05-05T21:49:15.233Z,4.63
2023-05-05T21:51:48.253Z,5.20
2023-05-05T21:54:21.098Z,4.57
2023-05-05T21:56:55.246Z,4.95
2023-05-05T21:59:28.089Z,3.88
2023-05-05T22:02:01.401Z,3.85
2023-05-05T22:04:34.357Z,6.78
2023-05-05T22:07:07.481Z,3.55
2023-05-05T22:09:40.427Z,4.55
2023-05-05T22:12:15.247Z,4.53
2023-05-05T22:17:20.670Z,4.32
2023-05-05T22:19:53.508Z,3.08
2023-05-05T22:22:26.427Z,3.17
2023-05-05T22:24:59.283Z,2.78
2023-05-05T22:27:33.433Z,3.00
2023-05-05T22:30:08.175Z,2.65
2023-05-05T22:32:43.280Z,2.75
2023-05-05T22:35:16.173Z,6.22
2023-05-05T22:37:48.949Z,2.22
2023-05-05T22:40:21.796Z,3.90
2023-05-05T22:42:55.917Z,3.33
2023-05-05T22:45:28.841Z,2.35
2023-05-05T22:48:02.184Z,2.10
2023-05-05T22:50:35.712Z,2.40
2023-05-05T22:53:08.716Z,2.08
2023-05-05T22:55:41.548Z,3.50
2023-05-05T22:58:15.717Z,3.00
2023-05-05T23:00:48.779Z,3.17
2023-05-05T23:03:21.594Z,4.93
2023-05-05T23:05:54.418Z,3.22
2023-05-05T23:08:27.265Z,3.10
2023-05-05T23:11:01.252Z,4.85
2023-05-05T23:13:35.598Z,2.30
2023-05-05T23:16:08.589Z,3.55
2023-05-05T23:18:41.515Z,3.00
2023-05-05T23:21:14.517Z,2.70
2023-05-05T23:23:48.347Z,3.45
2023-05-05T23:26:21.493Z,4.18
2023-05-05T23:28:55.797Z,2.28
2023-05-05T23:31:29.298Z,5.03
2023-05-05T23:34:02.230Z,3.63
2023-05-05T23:36:35.973Z,3.15
2023-05-05T23:39:08.807Z,3.92
2023-05-05T23:41:41.906Z,2.90
2023-05-05T23:44:16.197Z,3.28
2023-05-05T23:46:49.093Z,3.28
2023-05-05T23:49:22.079Z,3.50
2023-05-05T23:51:55.619Z,2.33
2023-05-05T23:54:28.605Z,4.28
2023-05-05T23:57:02.163Z,4.68
2023-05-05T23:59:36.452Z,2.85
